Time;durP1;ratioP1;P1;durP2;ratioP2;P2;SDS_P1;SDS_P2;PMS_P1;PMS_P2;Temp;Humidity;BMP_temperature;BMP_pressure;BME280_temperature;BME280_humidity;BME280_pressure;Samples;Min_cycle;Max_cycle;Signal;HPM_P1;HPM_P2
2021/11/03 00:00:33;;;;;;;1.67;1.30;;;20.60;47.10;;;24.88;30.53;99844.50;5052336;28;20053;-13
2021/11/03 00:03:01;;;;;;;2.10;1.55;;;20.60;47.10;;;24.87;30.62;99848.16;5034618;28;20053;-12
2021/11/03 00:05:28;;;;;;;2.92;1.65;;;20.60;47.10;;;24.87;30.68;99839.31;5050891;28;20500;-12
2021/11/03 00:07:56;;;;;;;2.72;1.77;;;20.50;47.00;;;24.86;30.65;99838.47;5052208;28;20103;-13
2021/11/03 00:10:22;;;;;;;2.63;1.77;;;20.50;47.10;;;24.87;30.54;99844.66;5052087;28;20045;-13
2021/11/03 00:12:48;;;;;;;2.53;1.55;;;20.60;47.10;;;24.85;30.50;99830.59;5051079;28;20061;-12
2021/11/03 00:15:14;;;;;;;1.90;1.63;;;20.60;47.10;;;24.85;30.50;99833.28;5054345;28;20554;-12
2021/11/03 00:17:40;;;;;;;2.45;1.42;;;20.60;47.10;;;24.86;30.64;99838.47;5055628;28;20099;-12
2021/11/03 00:20:09;;;;;;;2.28;1.38;;;20.50;47.10;;;24.86;30.69;99834.94;5056142;28;20049;-12
2021/11/03 00:22:35;;;;;;;2.30;1.58;;;20.50;47.10;;;24.86;30.59;99834.94;5055511;28;20049;-13
2021/11/03 00:25:02;;;;;;;3.65;1.90;;;20.50;47.10;;;24.85;30.62;99838.63;5055856;28;20060;-12
2021/11/03 00:27:28;;;;;;;2.08;1.50;;;20.60;47.10;;;24.84;30.71;99829.75;5055866;28;20076;-12
2021/11/03 00:29:53;;;;;;;1.92;1.52;;;20.50;47.10;;;24.87;30.54;99832.13;5055398;28;20049;-12
2021/11/03 00:32:20;;;;;;;3.40;1.50;;;20.60;47.10;;;24.87;30.55;99832.13;5055442;28;20041;-12
2021/11/03 00:34:46;;;;;;;2.67;1.95;;;20.60;47.10;;;24.86;30.65;99830.47;5055814;28;20059;-12
2021/11/03 00:37:14;;;;;;;1.90;1.20;;;20.60;47.10;;;24.85;30.56;99830.59;5055358;28;20044;-12
2021/11/03 00:39:41;;;;;;;2.80;1.77;;;20.60;47.10;;;24.86;30.29;99829.59;5054471;28;20059;-12
2021/11/03 00:42:07;;;;;;;2.63;1.50;;;20.60;47.10;;;24.82;30.55;99826.38;5037356;28;20071;-13
2021/11/03 00:44:33;;;;;;;2.03;1.70;;;20.50;47.10;;;24.84;30.43;99828.91;5053997;28;20051;-12
2021/11/03 00:47:00;;;;;;;2.05;1.27;;;20.50;47.10;;;24.83;30.53;99832.59;5053812;28;20052;-13
2021/11/03 00:49:26;;;;;;;1.95;1.63;;;20.50;47.10;;;24.85;30.61;99830.59;5036671;28;20524;-12
2021/11/03 00:51:54;;;;;;;1.40;1.30;;;20.50;47.10;;;24.85;30.60;99830.59;5053747;28;20378;-12
2021/11/03 00:54:22;;;;;;;2.17;1.80;;;20.50;47.10;;;24.85;30.72;99827.94;5037201;28;20041;-12
2021/11/03 00:56:50;;;;;;;2.92;1.60;;;20.50;47.10;;;24.85;30.70;99827.94;5037409;28;20080;-12
2021/11/03 00:59:18;;;;;;;2.30;1.52;;;20.60;47.10;;;24.84;30.70;99829.75;5035103;28;20055;-12
2021/11/03 01:01:46;;;;;;;1.80;1.55;;;20.50;47.10;;;24.83;30.53;99824.56;5053480;28;20055;-12
2021/11/03 01:04:14;;;;;;;1.88;1.45;;;20.50;47.10;;;24.83;30.54;99833.41;5055016;28;20137;-12
2021/11/03 01:06:40;;;;;;;2.38;1.60;;;20.50;47.10;;;24.82;30.62;99820.19;5054856;28;20404;-12
2021/11/03 01:09:06;;;;;;;2.78;1.73;;;20.50;47.10;;;24.82;30.75;99817.50;5054552;28;20049;-12
2021/11/03 01:11:32;;;;;;;2.15;1.63;;;20.50;47.10;;;24.85;30.66;99822.56;5054676;28;20107;-12
2021/11/03 01:13:58;;;;;;;2.35;1.50;;;20.50;47.10;;;24.83;30.68;99822.72;5051751;28;20058;-12
2021/11/03 01:16:24;;;;;;;1.95;1.40;;;20.50;47.10;;;24.83;30.54;99828.06;5054706;28;20123;-12
2021/11/03 01:18:53;;;;;;;2.25;1.85;;;20.50;47.10;;;24.85;30.51;99826.09;5054921;28;20051;-12
2021/11/03 01:21:20;;;;;;;2.05;1.52;;;20.50;47.10;;;24.85;30.75;99820.75;5036792;28;20056;-12
2021/11/03 01:23:46;;;;;;;1.73;1.60;;;20.50;47.10;;;24.84;30.71;99827.09;5054377;28;20044;-12
2021/11/03 01:26:12;;;;;;;2.42;1.90;;;20.50;47.10;;;24.86;30.68;99830.47;5053904;28;20126;-12
2021/11/03 01:28:38;;;;;;;2.33;1.55;;;20.60;47.20;;;24.86;30.60;99825.09;5054518;28;20044;-13
2021/11/03 01:31:03;;;;;;;2.13;1.60;;;20.50;47.10;;;24.84;30.51;99818.22;5054312;28;20056;-12
2021/11/03 01:33:29;;;;;;;2.20;1.40;;;20.50;47.10;;;24.83;30.49;99814.69;5035192;28;20398;-12
2021/11/03 01:35:55;;;;;;;1.83;1.35;;;20.50;47.10;;;24.86;30.70;99822.44;5016070;28;20442;-12
2021/11/03 01:38:21;;;;;;;2.03;1.52;;;20.50;47.10;;;24.85;30.61;99818.06;5054497;28;20123;-12
2021/11/03 01:40:50;;;;;;;2.03;1.60;;;20.50;47.10;;;24.82;30.67;99815.69;5035941;28;20140;-12
2021/11/03 01:43:46;;;;;;;2.35;1.50;;;20.50;47.10;;;24.86;30.78;99822.44;5036480;28;20397;-12
2021/11/03 01:46:38;;;;;;;2.45;1.73;;;20.50;47.10;;;24.85;30.52;99810.03;5037198;28;20056;-12
2021/11/03 01:49:29;;;;;;;2.30;1.75;;;20.50;47.10;;;24.83;30.50;99806.69;5027478;28;20053;-12
2021/11/03 01:52:05;;;;;;;3.08;1.70;;;20.50;47.10;;;24.84;30.45;99807.50;5053538;28;20163;-12
2021/11/03 01:54:47;;;;;;;2.15;1.60;;;20.50;47.10;;;24.85;30.45;99817.22;5051463;28;20049;-12
2021/11/03 01:57:26;;;;;;;1.90;1.58;;;20.60;47.00;;;24.84;30.67;99800.34;5052918;28;20074;-13
2021/11/03 01:59:59;;;;;;;1.75;1.48;;;20.60;47.00;;;24.83;30.60;99800.50;5035495;28;20067;-12
2021/11/03 02:02:26;;;;;;;1.73;1.48;;;20.50;47.00;;;24.82;30.68;99804.16;5035936;28;20045;-12
2021/11/03 02:04:55;;;;;;;2.60;1.83;;;20.60;47.00;;;24.83;30.57;99816.53;5054080;28;20068;-12
2021/11/03 02:07:25;;;;;;;1.40;1.30;;;20.50;47.00;;;24.84;30.61;99811.06;5034972;28;20046;-12
2021/11/03 02:09:54;;;;;;;2.00;1.67;;;20.60;47.10;;;24.82;30.61;99815.69;5052143;28;20076;-12
2021/11/03 02:12:27;;;;;;;1.55;1.45;;;20.60;47.10;;;24.81;30.73;99811.34;5053958;28;20056;-12
2021/11/03 02:14:54;;;;;;;2.33;1.52;;;20.50;47.10;;;24.84;30.65;99816.41;5052574;28;20075;-12
2021/11/03 02:17:23;;;;;;;1.65;1.52;;;20.50;47.10;;;24.81;30.52;99814.00;5052555;28;20084;-12
2021/11/03 02:19:52;;;;;;;3.33;2.00;;;20.60;47.00;;;24.82;30.65;99814.84;5052827;28;20132;-12
2021/11/03 02:22:43;;;;;;;2.53;1.50;;;20.50;47.00;;;24.84;30.56;99813.72;5035983;28;20053;-12
2021/11/03 02:25:11;;;;;;;2.25;1.55;;;20.50;47.00;;;24.87;30.46;99815.25;5035887;28;20045;-12
2021/11/03 02:27:42;;;;;;;2.70;1.50;;;20.60;47.10;;;24.80;30.66;99809.63;5035689;28;20044;-12
2021/11/03 02:30:14;;;;;;;1.95;1.65;;;20.50;47.00;;;24.82;30.52;99814.84;5052327;28;20554;-12
2021/11/03 02:32:43;;;;;;;2.20;1.63;;;20.50;47.10;;;24.80;30.63;99803.47;5053678;28;20049;-13
2021/11/03 02:35:12;;;;;;;2.53;2.00;;;20.50;47.10;;;24.81;30.74;99807.81;5035919;28;20049;-12
2021/11/03 02:37:44;;;;;;;1.85;1.63;;;20.50;47.00;;;24.82;30.62;99813.00;5035062;28;20052;-13
2021/11/03 02:40:46;;;;;;;1.92;1.65;;;20.60;47.00;;;24.85;30.69;99817.22;5052502;28;20052;-13
2021/11/03 02:43:24;;;;;;;1.95;1.60;;;20.60;47.00;;;24.86;30.73;99810.88;5030269;28;20041;-12
2021/11/03 02:45:58;;;;;;;1.77;1.52;;;20.60;47.00;;;24.84;30.66;99813.72;5052478;28;20045;-12
2021/11/03 02:48:30;;;;;;;1.60;1.50;;;20.60;47.00;;;24.84;30.68;99799.50;5034638;28;20140;-12
2021/11/03 02:51:07;;;;;;;1.70;1.42;;;20.60;46.90;;;24.85;30.62;99799.34;5053513;28;20048;-12
2021/11/03 02:53:44;;;;;;;2.10;1.58;;;20.60;46.90;;;24.83;30.74;99809.34;5035442;28;20049;-12
2021/11/03 02:56:11;;;;;;;1.73;1.50;;;20.60;46.90;;;24.84;30.65;99808.38;5052462;28;20072;-12
2021/11/03 02:58:37;;;;;;;2.47;1.70;;;20.60;46.90;;;24.84;30.44;99807.50;5035930;28;20045;-13
2021/11/03 03:01:38;;;;;;;2.58;1.85;;;20.60;46.80;;;24.86;30.50;99805.53;5051775;28;20053;-12
2021/11/03 03:04:39;;;;;;;2.28;1.33;;;20.60;46.90;;;24.87;30.59;99801.88;5051674;28;20190;-12
2021/11/03 03:07:06;;;;;;;1.73;1.60;;;20.60;46.80;;;24.86;30.52;99797.50;5034785;28;20045;-12
2021/11/03 03:09:33;;;;;;;1.98;1.83;;;20.60;46.80;;;24.86;30.70;99805.53;5052235;28;20056;-12
2021/11/03 03:12:03;;;;;;;1.92;1.70;;;20.60;46.80;;;24.85;30.79;99806.53;5051549;28;20049;-12
2021/11/03 03:14:36;;;;;;;1.95;1.75;;;20.60;46.80;;;24.84;30.51;99816.41;5034600;28;20109;-12
2021/11/03 03:17:05;;;;;;;2.75;1.70;;;20.60;46.90;;;24.86;30.69;99806.38;5034415;28;20521;-12
2021/11/03 03:19:31;;;;;;;2.33;1.80;;;20.60;46.80;;;24.87;30.52;99813.41;5035622;28;20453;-12
2021/11/03 03:21:57;;;;;;;2.63;1.80;;;20.60;46.80;;;24.84;30.47;99812.84;5052838;28;20135;-12
2021/11/03 03:24:23;;;;;;;2.15;1.70;;;20.60;46.80;;;24.88;30.65;99819.63;5052152;28;20412;-12
2021/11/03 03:26:50;;;;;;;3.15;1.67;;;20.60;46.80;;;24.87;30.55;99821.44;5052846;28;20386;-12
2021/11/03 03:29:17;;;;;;;2.10;1.80;;;20.70;46.80;;;24.86;30.55;99810.88;5033707;28;20045;-12
2021/11/03 03:31:46;;;;;;;1.88;1.70;;;20.60;46.70;;;24.90;30.54;99826.50;5050048;28;20049;-12
2021/11/03 03:34:20;;;;;;;1.80;1.43;;;20.70;46.80;;;24.90;30.53;99823.81;5035146;28;20498;-12
2021/11/03 03:36:48;;;;;;;1.80;1.50;;;20.70;46.70;;;24.90;30.47;99818.47;5034953;28;20051;-12
2021/11/03 03:39:18;;;;;;;1.67;1.55;;;20.70;46.70;;;24.91;30.47;99828.19;5051271;28;20539;-12
2021/11/03 03:41:50;;;;;;;1.70;1.60;;;20.70;46.70;;;24.91;30.55;99822.84;5035139;28;20077;-12
2021/11/03 03:44:16;;;;;;;2.22;1.50;;;20.70;46.70;;;24.90;30.46;99823.81;5050653;28;20052;-12
2021/11/03 03:46:43;;;;;;;2.53;1.70;;;20.70;46.60;;;24.93;30.48;99823.53;5047685;28;20054;-12
2021/11/03 03:49:09;;;;;;;2.30;1.55;;;20.70;46.60;;;24.93;30.47;99826.19;5034104;28;20075;-12
2021/11/03 03:51:36;;;;;;;1.83;1.67;;;20.70;46.50;;;24.93;30.55;99825.38;5033920;28;20060;-12
2021/11/03 03:54:02;;;;;;;2.22;1.70;;;20.80;46.60;;;24.97;30.46;99824.06;5033100;28;20049;-12
2021/11/03 03:56:28;;;;;;;2.00;1.40;;;20.80;46.50;;;24.97;30.64;99821.41;5051413;28;20376;-12
2021/11/03 03:58:54;;;;;;;2.85;1.80;;;20.80;46.50;;;25.01;30.70;99821.94;5052239;28;20049;-13
2021/11/03 04:01:24;;;;;;;2.30;1.70;;;20.80;46.40;;;24.98;30.51;99815.06;5033115;28;20072;-12
2021/11/03 04:03:50;;;;;;;2.47;1.65;;;20.90;46.40;;;25.02;30.45;99827.16;5049438;28;20047;-12
2021/11/03 04:06:17;;;;;;;1.77;1.55;;;20.90;46.40;;;25.04;30.37;99825.19;5034456;28;20539;-12
2021/11/03 04:08:43;;;;;;;3.65;1.60;;;20.90;46.40;;;25.06;30.60;99833.91;5034004;28;20075;-12
2021/11/03 04:11:11;;;;;;;1.75;1.50;;;20.90;46.40;;;25.05;30.56;99832.22;5033378;28;20053;-12
2021/11/03 04:13:39;;;;;;;2.65;2.00;;;20.90;46.40;;;25.07;30.49;99832.91;5033011;28;20049;-12
2021/11/03 04:16:06;;;;;;;1.88;1.65;;;20.90;46.40;;;25.09;30.47;99838.09;5034175;28;20080;-12
2021/11/03 04:18:32;;;;;;;2.30;1.70;;;20.90;46.20;;;25.12;30.39;99845.84;5034417;28;20088;-12
2021/11/03 04:20:58;;;;;;;3.50;1.85;;;20.90;46.10;;;25.12;30.32;99848.50;5034751;28;20063;-12
2021/11/03 04:23:24;;;;;;;1.98;1.60;;;20.90;46.30;;;25.09;30.37;99848.81;5049876;28;20046;-12
2021/11/03 04:25:51;;;;;;;2.05;1.52;;;20.90;46.20;;;25.10;30.19;99854.00;5034782;28;20094;-12
2021/11/03 04:28:18;;;;;;;1.88;1.67;;;20.90;46.00;;;25.10;30.20;99845.16;5050552;28;20132;-13
2021/11/03 04:30:45;;;;;;;2.40;1.95;;;20.90;46.00;;;25.11;30.18;99852.19;5034534;28;20140;-12
2021/11/03 04:33:14;;;;;;;2.25;1.85;;;20.90;46.00;;;25.13;30.24;99853.72;5049769;28;20050;-12
2021/11/03 04:35:40;;;;;;;2.75;1.85;;;20.90;45.90;;;25.13;30.16;99845.69;5051865;28;20044;-12
2021/11/03 04:38:06;;;;;;;2.65;1.90;;;20.90;46.00;;;25.13;30.32;99850.22;5034013;28;20052;-12
2021/11/03 04:40:34;;;;;;;2.25;1.50;;;20.90;45.90;;;25.13;30.15;99863.59;5050802;28;20463;-12
2021/11/03 04:43:00;;;;;;;2.28;1.73;;;20.90;46.00;;;25.15;30.07;99858.91;5051847;28;20045;-12
2021/11/03 04:45:27;;;;;;;2.10;1.88;;;20.90;45.90;;;25.13;30.12;99861.75;5049186;28;20072;-12
2021/11/03 04:47:53;;;;;;;3.42;2.08;;;21.00;46.00;;;25.13;30.20;99864.41;5050511;28;20137;-12
2021/11/03 04:50:28;;;;;;;2.90;2.05;;;20.90;45.90;;;25.13;30.26;99869.78;5034274;28;20131;-12
2021/11/03 04:52:55;;;;;;;1.77;1.42;;;20.90;45.90;;;25.13;30.10;99861.75;5050642;28;20060;-12
2021/11/03 04:55:21;;;;;;;1.70;1.52;;;20.90;46.00;;;25.14;30.10;99863.44;5050315;28;20049;-12
2021/11/03 04:57:48;;;;;;;1.95;1.70;;;21.00;46.00;;;25.15;30.13;99867.78;5050838;28;20085;-13
2021/11/03 05:00:24;;;;;;;3.05;1.60;;;20.90;46.00;;;25.13;30.11;99858.22;5051807;28;20060;-12
2021/11/03 05:02:53;;;;;;;1.88;1.70;;;20.90;46.00;;;25.13;30.16;99867.09;5054185;28;20377;-12
2021/11/03 05:05:19;;;;;;;1.73;1.63;;;20.90;46.00;;;25.11;30.15;99871.75;5055227;28;20049;-12
2021/11/03 05:07:47;;;;;;;2.63;1.85;;;20.90;46.00;;;25.10;30.19;99863.88;5054150;28;20041;-12
2021/11/03 05:10:13;;;;;;;1.70;1.60;;;20.90;46.00;;;25.11;30.25;99868.25;5036871;28;20052;-12
2021/11/03 05:12:39;;;;;;;2.45;1.90;;;20.90;46.00;;;25.09;30.06;99857.69;5036733;28;20049;-13
2021/11/03 05:15:06;;;;;;;2.22;1.85;;;20.90;46.00;;;25.12;29.95;99860.03;5055120;28;20158;-12
2021/11/03 05:17:34;;;;;;;1.58;1.48;;;20.90;46.10;;;25.13;30.15;99879.63;5036806;28;20142;-12
2021/11/03 05:20:00;;;;;;;1.85;1.73;;;20.90;46.10;;;25.11;30.12;99871.75;5053391;28;20496;-12
2021/11/03 05:22:27;;;;;;;2.58;1.70;;;20.90;46.10;;;25.11;30.08;99869.06;5051843;28;20045;-12
2021/11/03 05:24:54;;;;;;;1.98;1.70;;;20.90;46.10;;;25.13;30.07;99863.59;5054694;28;20552;-12
2021/11/03 05:27:20;;;;;;;2.17;1.75;;;20.90;46.10;;;25.11;30.19;99862.91;5054605;28;20870;-13
2021/11/03 05:29:46;;;;;;;1.73;1.63;;;20.90;46.10;;;25.13;30.00;99861.75;5055024;28;20068;-12
2021/11/03 05:32:12;;;;;;;2.58;1.80;;;20.90;46.10;;;25.12;30.19;99860.03;5054516;28;20095;-12
2021/11/03 05:34:37;;;;;;;2.75;1.92;;;20.90;46.00;;;25.11;30.12;99858.38;5054541;28;20045;-13
2021/11/03 05:37:04;;;;;;;2.72;1.90;;;20.90;46.00;;;25.12;30.16;99843.16;5054506;28;20056;-12
2021/11/03 05:39:31;;;;;;;2.35;1.85;;;20.90;46.10;;;25.11;30.15;99854.88;5054742;28;20048;-12
2021/11/03 05:41:57;;;;;;;1.70;1.55;;;20.90;46.00;;;25.12;30.09;99848.50;5054510;28;20055;-12
2021/11/03 05:44:23;;;;;;;1.50;1.40;;;20.90;46.00;;;25.12;29.87;99857.38;5054948;28;20048;-12
2021/11/03 05:46:55;;;;;;;1.60;1.50;;;20.90;46.10;;;25.13;30.14;99858.22;5054448;28;20405;-12
2021/11/03 05:49:27;;;;;;;2.17;1.80;;;20.90;46.00;;;25.11;30.06;99863.72;5054529;28;20049;-12
2021/11/03 05:51:54;;;;;;;;;;;20.90;46.00;;;25.27;29.91;99856.94;5054954;28;20549;-13
2021/11/03 05:54:25;;;;;;;2.25;1.55;;;20.90;46.00;;;25.18;29.96;99874.69;5050987;28;20357;-12
2021/11/03 05:56:52;;;;;;;;;;;20.90;46.00;;;25.31;29.78;99869.88;5036804;28;20091;-12
2021/11/03 05:59:19;;;;;;;2.90;2.28;;;20.90;46.00;;;25.21;30.05;99877.06;5052966;28;19917;-12
2021/11/03 06:01:45;;;;;;;2.45;1.85;;;20.90;46.00;;;25.13;29.96;99868.94;5054673;28;20473;-12
2021/11/03 06:04:11;;;;;;;1.83;1.60;;;20.90;46.00;;;25.13;30.10;99879.63;5054390;28;20045;-12
2021/11/03 06:06:37;;;;;;;2.47;1.83;;;20.90;46.00;;;25.11;30.07;99871.75;5053801;28;20064;-12
2021/11/03 06:09:08;;;;;;;2.17;1.65;;;20.90;46.00;;;25.09;30.04;99873.75;5053832;28;20045;-12
2021/11/03 06:11:38;;;;;;;2.40;1.57;;;20.90;46.00;;;25.12;30.11;99881.44;5053930;28;20084;-12
2021/11/03 06:14:04;;;;;;;;;;;20.90;46.10;;;25.27;29.94;99884.53;5054226;28;20303;-12
2021/11/03 06:16:31;;;;;;;3.58;1.65;;;20.90;46.10;;;25.18;30.03;99892.56;5053652;28;19917;-12
2021/11/03 06:18:57;;;;;;;2.00;1.80;;;20.90;46.00;;;25.15;29.99;99896.38;5053526;28;20401;-12
2021/11/03 06:21:23;;;;;;;1.77;1.38;;;20.90;46.10;;;25.11;30.13;99897.66;5053708;28;20508;-12
2021/11/03 06:23:49;;;;;;;1.92;1.70;;;20.90;46.00;;;25.13;30.10;99898.34;5054033;28;20053;-12
2021/11/03 06:26:18;;;;;;;2.17;1.55;;;20.90;46.10;;;25.11;30.00;99901.19;5053782;28;20045;-12
2021/11/03 06:28:45;;;;;;;1.73;1.60;;;20.90;46.60;;;25.11;30.03;99905.69;5053922;28;20393;-12
2021/11/03 06:31:11;;;;;;;5.88;1.73;;;20.90;46.10;;;25.13;30.21;99915.25;5054056;28;20048;-12
2021/11/03 06:33:37;;;;;;;2.63;1.88;;;20.90;46.50;;;25.13;30.10;99912.56;5053652;28;20477;-12
2021/11/03 06:36:06;;;;;;;7.57;1.90;;;20.90;46.40;;;25.14;30.33;99910.72;5053574;28;20067;-12
2021/11/03 06:38:32;;;;;;;3.53;1.98;;;20.90;46.40;;;25.15;30.26;99917.78;5053400;28;20251;-12
2021/11/03 06:40:59;;;;;;;6.60;1.88;;;20.90;46.30;;;25.15;30.05;99918.59;5053482;28;20049;-12
2021/11/03 06:43:25;;;;;;;4.13;2.20;;;21.00;46.40;;;25.13;30.22;99915.25;5053715;28;20037;-12
2021/11/03 06:45:50;;;;;;;4.65;1.85;;;20.90;46.30;;;25.14;30.13;99919.63;5053373;28;20051;-12
2021/11/03 06:48:16;;;;;;;4.93;1.90;;;21.00;46.30;;;25.14;30.26;99938.34;5053209;28;20052;-12
2021/11/03 06:50:45;;;;;;;3.17;1.83;;;20.90;46.20;;;25.13;30.26;99936.63;5053187;28;20049;-11
2021/11/03 06:53:15;;;;;;;3.83;1.90;;;21.00;46.30;;;25.18;30.19;99943.41;5053285;28;20064;-11
2021/11/03 06:55:42;;;;;;;2.40;1.60;;;20.90;46.20;;;25.19;30.15;99940.56;5052358;28;20090;-11
2021/11/03 06:58:09;;;;;;;2.95;2.22;;;21.00;46.20;;;25.18;30.15;99938.06;5053268;28;20405;-12
2021/11/03 07:00:40;;;;;;;3.13;1.95;;;21.00;46.20;;;25.23;30.07;99933.09;5052121;28;20061;-11
2021/11/03 07:03:06;;;;;;;3.13;1.75;;;21.10;46.00;;;25.27;30.08;99931.84;5053166;28;20045;-12
2021/11/03 07:05:35;;;;;;;2.05;1.73;;;21.10;45.90;;;25.26;30.09;99931.00;5053003;28;20045;-13
2021/11/03 07:08:03;;;;;;;3.47;1.70;;;21.10;45.70;;;25.28;30.00;99931.69;5053008;28;20077;-13
2021/11/03 07:10:34;;;;;;;2.30;1.60;;;21.20;45.80;;;25.32;30.08;99930.41;5050152;28;20053;-13
2021/11/03 07:13:00;;;;;;;3.90;1.85;;;21.20;45.60;;;25.36;29.93;99932.78;5052944;28;20052;-12
2021/11/03 07:15:26;;;;;;;2.30;1.58;;;21.20;45.60;;;25.41;29.97;99949.25;5052904;28;20083;-12
2021/11/03 07:17:54;;;;;;;3.20;1.92;;;21.30;45.60;;;25.38;29.92;99934.34;5053288;28;20124;-12
2021/11/03 07:20:20;;;;;;;2.60;1.65;;;21.20;45.50;;;25.41;29.99;99942.09;5052822;28;20045;-13
2021/11/03 07:22:46;;;;;;;1.92;1.50;;;21.30;45.60;;;25.43;30.03;99941.94;5052659;28;20424;-13
2021/11/03 07:25:17;;;;;;;4.00;1.52;;;21.30;45.50;;;25.43;29.97;99944.63;5052683;28;20045;-13
2021/11/03 07:27:45;;;;;;;1.67;1.45;;;21.30;45.50;;;25.48;29.67;99955.72;5053094;28;20479;-13
2021/11/03 07:30:12;;;;;;;2.13;1.73;;;21.30;45.50;;;25.45;29.82;99950.66;5052358;28;20049;-13
2021/11/03 07:32:37;;;;;;;5.90;1.50;;;21.30;45.40;;;25.48;29.72;99961.91;5052641;28;20072;-13
2021/11/03 07:35:03;;;;;;;4.18;1.92;;;21.30;45.40;;;25.52;29.78;99967.81;5052862;28;20094;-13
2021/11/03 07:37:29;;;;;;;3.25;1.80;;;21.30;45.40;;;25.52;29.76;99965.13;5052499;28;20048;-13
2021/11/03 07:39:55;;;;;;;2.72;1.88;;;21.30;45.40;;;25.51;29.84;99964.31;5052580;28;20037;-13
2021/11/03 07:42:21;;;;;;;1.98;1.58;;;21.30;45.50;;;25.53;29.90;99964.16;5052596;28;20041;-12
2021/11/03 07:44:49;;;;;;;2.80;1.88;;;21.30;45.40;;;25.50;29.72;99967.13;5034937;28;20083;-13
2021/11/03 07:47:16;;;;;;;4.60;1.80;;;21.30;45.50;;;25.52;29.83;99963.28;5052299;28;20423;-13
2021/11/03 07:49:42;;;;;;;3.67;1.73;;;21.30;45.50;;;25.51;29.83;99961.63;5052824;28;20386;-13
2021/11/03 07:52:08;;;;;;;2.20;1.80;;;21.30;45.40;;;25.55;29.71;99966.69;5052231;28;20408;-13
2021/11/03 07:54:34;;;;;;;3.25;2.03;;;21.30;45.40;;;25.54;29.72;99963.16;5052446;28;20049;-12
2021/11/03 07:57:00;;;;;;;3.75;1.65;;;21.40;45.40;;;25.53;29.69;99964.16;5052366;28;20045;-13
2021/11/03 07:59:27;;;;;;;3.05;1.77;;;21.40;45.40;;;25.57;29.69;99970.06;5052681;28;20143;-12
2021/11/03 08:01:55;;;;;;;2.90;1.50;;;21.40;45.40;;;25.55;29.62;99964.84;5050888;28;20041;-12
2021/11/03 08:04:22;;;;;;;1.58;1.40;;;21.40;45.30;;;25.59;29.65;99965.41;5049386;28;20068;-13
2021/11/03 08:06:49;;;;;;;1.67;1.50;;;21.40;45.30;;;25.59;29.60;99971.59;5052523;28;20501;-13
2021/11/03 08:09:16;;;;;;;2.03;1.42;;;21.40;45.20;;;25.59;29.60;99979.63;5052116;28;20053;-13
2021/11/03 08:11:47;;;;;;;2.08;1.58;;;21.40;45.20;;;25.61;29.47;99987.50;5052076;28;20424;-19
2021/11/03 08:14:16;;;;;;;3.88;1.80;;;21.40;45.20;;;25.63;29.55;99983.69;5052384;28;20049;-10
2021/11/03 08:17:06;;;;;;;2.45;1.88;;;21.40;45.20;;;25.61;29.65;99980.34;5052129;28;20098;-10
2021/11/03 08:19:42;;;;;;;5.63;1.80;;;21.50;45.20;;;25.64;29.52;99992.56;5026013;28;20061;-10
2021/11/03 08:22:10;;;;;;;1.63;1.52;;;21.40;45.10;;;25.63;29.70;99996.25;5052218;28;20049;-10
2021/11/03 08:24:36;;;;;;;1.83;1.60;;;21.40;45.20;;;25.62;29.54;99987.34;5052357;28;20045;-10
2021/11/03 08:27:04;;;;;;;3.38;1.73;;;21.40;45.20;;;25.59;29.74;99995.66;5050222;28;20153;-10
2021/11/03 08:29:29;;;;;;;2.50;1.65;;;21.40;45.30;;;25.58;29.55;99985.16;5052377;28;20057;-10
2021/11/03 08:31:58;;;;;;;1.80;1.50;;;21.40;45.30;;;25.59;29.56;99992.16;5051803;28;20122;-11
2021/11/03 08:34:31;;;;;;;3.30;1.70;;;21.30;45.30;;;25.56;29.61;99996.00;5052099;28;20095;-10
2021/11/03 08:37:09;;;;;;;6.53;1.88;;;21.30;45.30;;;25.57;29.65;99991.47;5054986;28;20400;-10
2021/11/03 08:39:39;;;;;;;2.65;1.67;;;21.30;45.40;;;25.56;29.59;99998.66;5055548;28;20121;-11
2021/11/03 08:42:06;;;;;;;2.00;1.58;;;21.30;45.40;;;25.56;29.42;100004.03;5054067;28;20045;-11
2021/11/03 08:44:33;;;;;;;3.60;1.80;;;21.30;45.30;;;25.55;29.66;100007.69;5055215;28;20049;-11
2021/11/03 08:47:02;;;;;;;3.00;2.00;;;21.30;45.30;;;25.55;29.59;100014.88;5055197;28;20167;-11
2021/11/03 08:49:30;;;;;;;2.47;1.70;;;21.30;45.30;;;25.58;29.70;100014.59;5055285;28;20092;-11
2021/11/03 08:51:57;;;;;;;2.53;1.83;;;21.30;45.20;;;25.58;29.44;100022.63;5035485;28;20057;-12
2021/11/03 08:54:23;;;;;;;1.92;1.40;;;21.30;45.20;;;25.56;29.48;100017.41;5055335;28;20408;-11
2021/11/03 08:56:49;;;;;;;3.22;2.15;;;21.30;45.30;;;25.58;29.55;100019.94;5052858;28;20049;-13
2021/11/03 08:59:16;;;;;;;3.67;1.67;;;21.30;45.30;;;25.54;29.63;100014.00;5052288;28;20046;-13
2021/11/03 09:01:44;;;;;;;3.47;2.25;;;21.30;45.30;;;25.53;29.52;100015.00;5054953;28;20113;-13
2021/11/03 09:04:11;;;;;;;4.60;1.70;;;21.30;45.30;;;25.56;29.68;100019.22;5054809;28;20041;-13
2021/11/03 09:06:38;;;;;;;2.33;1.75;;;21.30;45.30;;;25.55;29.56;100020.22;5054672;28;20068;-13
2021/11/03 09:09:05;;;;;;;2.55;1.65;;;21.30;45.20;;;25.57;29.45;100011.03;5054576;28;20049;-12
2021/11/03 09:11:32;;;;;;;2.13;1.90;;;21.30;45.20;;;25.58;29.58;100015.44;5054381;28;20045;-10
2021/11/03 09:13:59;;;;;;;2.42;1.85;;;21.30;45.10;;;25.58;29.54;100011.91;5054408;28;20057;-10
2021/11/03 09:16:25;;;;;;;5.53;2.00;;;21.30;45.20;;;25.57;29.45;100008.38;5054342;28;20044;-11
2021/11/03 09:18:52;;;;;;;2.03;1.52;;;21.30;45.10;;;25.57;29.57;100004.84;5054434;28;20049;-11
2021/11/03 09:21:22;;;;;;;4.38;2.13;;;21.30;45.70;;;25.54;29.25;99995.28;5054953;28;20048;-11
2021/11/03 09:23:48;;;;;;;4.30;2.00;;;21.30;45.10;;;25.54;29.66;100003.31;5054666;28;20075;-10
2021/11/03 09:26:17;;;;;;;2.55;1.70;;;21.30;45.20;;;25.54;29.59;100000.63;5054748;28;20500;-10
2021/11/03 09:28:44;;;;;;;5.00;1.92;;;21.30;45.10;;;25.53;29.50;100001.63;5054593;28;20485;-11
2021/11/03 09:31:12;;;;;;;2.17;1.70;;;21.30;45.20;;;25.57;29.54;100004.84;5053223;28;20045;-10
2021/11/03 09:33:40;;;;;;;3.17;1.88;;;21.40;45.20;;;25.58;29.46;100009.22;5053175;28;20132;-11
2021/11/03 09:36:15;;;;;;;4.43;1.70;;;21.30;45.10;;;25.58;29.54;99999.38;5054441;28;20052;-12
2021/11/03 09:38:41;;;;;;;2.17;1.98;;;21.30;45.10;;;25.59;29.52;100000.19;5054551;28;20045;-12
2021/11/03 09:41:31;;;;;;;3.30;1.83;;;21.30;45.10;;;25.59;29.52;99998.34;5054354;28;20052;-12
2021/11/03 09:44:20;;;;;;;2.23;2.03;;;21.30;45.30;;;25.57;29.53;99994.97;5051146;28;20394;-11
2021/11/03 09:46:54;;;;;;;3.83;1.73;;;21.40;45.10;;;25.59;29.55;100000.19;5053870;28;20288;-11
2021/11/03 09:49:38;;;;;;;2.33;1.88;;;21.40;45.10;;;25.59;29.53;99995.66;5054171;28;20048;-12
2021/11/03 09:52:37;;;;;;;2.75;1.83;;;21.40;45.10;;;25.63;29.43;99998.94;5054130;28;20188;-12
2021/11/03 09:55:24;;;;;;;1.85;1.63;;;21.40;45.00;;;25.61;29.46;99998.22;5054455;28;20052;-12
2021/11/03 09:58:03;;;;;;;4.30;1.83;;;21.40;45.00;;;25.58;29.37;99999.38;5054423;28;20413;-11
2021/11/03 10:00:46;;;;;;;3.85;1.90;;;21.40;45.00;;;25.60;29.38;100008.09;5052896;28;20052;-12
2021/11/03 10:03:52;;;;;;;3.40;2.00;;;21.40;45.00;;;25.59;29.47;100001.03;5052799;28;20136;-11
2021/11/03 10:06:28;;;;;;;2.10;1.70;;;21.40;45.00;;;25.57;29.39;100002.19;5034311;28;20064;-11
2021/11/03 10:08:55;;;;;;;3.08;1.50;;;21.30;45.00;;;25.56;29.33;99995.13;5034579;28;20453;-13
2021/11/03 10:11:35;;;;;;;3.80;1.90;;;21.30;45.10;;;25.54;29.44;100000.63;5053576;28;20053;-13
2021/11/03 10:14:02;;;;;;;2.22;1.60;;;21.30;45.10;;;25.56;29.43;100005.84;5053558;28;20508;-12
2021/11/03 10:16:36;;;;;;;2.95;1.85;;;21.40;45.10;;;25.57;29.46;100005.69;5053509;28;20073;-13
2021/11/03 10:19:23;;;;;;;3.65;1.77;;;21.30;45.10;;;25.55;29.56;99996.13;5053533;28;20059;-13
2021/11/03 10:21:52;;;;;;;3.97;2.08;;;21.30;45.00;;;25.59;29.43;100005.56;5053775;28;20516;-11
2021/11/03 10:24:20;;;;;;;3.83;1.92;;;21.40;45.10;;;25.58;29.48;100003.88;5054017;28;20060;-11
2021/11/03 10:27:29;;;;;;;2.72;1.92;;;21.40;45.10;;;25.58;29.45;100002.03;5053664;28;20135;-11